sensor_id;sensor_type;location;lat;lon;timestamp;P1;durP1;ratioP1;P2;durP2;ratioP2
10473;SDS011;5284;50.446;7.904;2023-07-24T00:03:34;2.40;;;1.67;;
10473;SDS011;5284;50.446;7.904;2023-07-24T00:08:37;2.13;;;1.58;;
10473;SDS011;5284;50.446;7.904;2023-07-24T00:13:42;2.10;;;1.30;;
10473;SDS011;5284;50.446;7.904;2023-07-24T00:18:44;3.88;;;1.60;;
10473;SDS011;5284;50.446;7.904;2023-07-24T00:23:48;9.43;;;2.08;;
10473;SDS011;5284;50.446;7.904;2023-07-24T00:28:52;9.07;;;2.17;;
10473;SDS011;5284;50.446;7.904;2023-07-24T00:33:55;8.40;;;1.42;;
10473;SDS011;5284;50.446;7.904;2023-07-24T00:38:57;6.43;;;1.38;;
10473;SDS011;5284;50.446;7.904;2023-07-24T00:44:02;8.90;;;1.83;;
10473;SDS011;5284;50.446;7.904;2023-07-24T00:49:04;19.67;;;2.00;;
10473;SDS011;5284;50.446;7.904;2023-07-24T00:54:08;29.75;;;2.50;;
10473;SDS011;5284;50.446;7.904;2023-07-24T00:59:12;10.60;;;1.80;;
10473;SDS011;5284;50.446;7.904;2023-07-24T01:04:15;22.85;;;3.25;;
10473;SDS011;5284;50.446;7.904;2023-07-24T01:09:20;4.60;;;1.52;;
10473;SDS011;5284;50.446;7.904;2023-07-24T01:14:27;5.95;;;1.83;;
10473;SDS011;5284;50.446;7.904;2023-07-24T01:19:37;4.97;;;1.25;;
10473;SDS011;5284;50.446;7.904;2023-07-24T01:24:52;6.43;;;1.63;;
10473;SDS011;5284;50.446;7.904;2023-07-24T01:30:05;12.52;;;2.80;;
10473;SDS011;5284;50.446;7.904;2023-07-24T01:35:09;27.50;;;2.75;;
10473;SDS011;5284;50.446;7.904;2023-07-24T01:40:12;4.70;;;1.63;;
10473;SDS011;5284;50.446;7.904;2023-07-24T01:45:17;2.63;;;1.73;;
10473;SDS011;5284;50.446;7.904;2023-07-24T01:50:20;2.30;;;1.60;;
10473;SDS011;5284;50.446;7.904;2023-07-24T01:55:23;3.83;;;2.30;;
10473;SDS011;5284;50.446;7.904;2023-07-24T02:00:28;3.97;;;2.30;;
10473;SDS011;5284;50.446;7.904;2023-07-24T02:05:34;9.68;;;2.53;;
10473;SDS011;5284;50.446;7.904;2023-07-24T02:10:37;7.53;;;2.53;;
10473;SDS011;5284;50.446;7.904;2023-07-24T02:15:41;12.35;;;2.15;;
10473;SDS011;5284;50.446;7.904;2023-07-24T02:20:48;7.05;;;1.90;;
10473;SDS011;5284;50.446;7.904;2023-07-24T02:25:52;8.50;;;2.40;;
10473;SDS011;5284;50.446;7.904;2023-07-24T02:30:56;9.88;;;2.20;;
10473;SDS011;5284;50.446;7.904;2023-07-24T02:36:00;11.00;;;1.83;;
10473;SDS011;5284;50.446;7.904;2023-07-24T02:41:03;16.00;;;2.75;;
10473;SDS011;5284;50.446;7.904;2023-07-24T02:46:07;15.38;;;2.20;;
10473;SDS011;5284;50.446;7.904;2023-07-24T02:51:10;7.65;;;2.10;;
10473;SDS011;5284;50.446;7.904;2023-07-24T02:56:13;9.77;;;2.05;;
10473;SDS011;5284;50.446;7.904;2023-07-24T03:01:17;3.72;;;2.13;;
10473;SDS011;5284;50.446;7.904;2023-07-24T03:06:21;22.33;;;2.25;;
10473;SDS011;5284;50.446;7.904;2023-07-24T03:11:24;6.35;;;2.10;;
10473;SDS011;5284;50.446;7.904;2023-07-24T03:16:28;5.18;;;2.03;;
10473;SDS011;5284;50.446;7.904;2023-07-24T03:21:32;5.03;;;2.08;;
10473;SDS011;5284;50.446;7.904;2023-07-24T03:26:35;13.13;;;2.75;;
10473;SDS011;5284;50.446;7.904;2023-07-24T03:31:39;2.03;;;1.52;;
10473;SDS011;5284;50.446;7.904;2023-07-24T03:36:42;5.78;;;2.72;;
10473;SDS011;5284;50.446;7.904;2023-07-24T03:41:45;16.58;;;2.22;;
10473;SDS011;5284;50.446;7.904;2023-07-24T03:46:49;8.32;;;2.92;;
10473;SDS011;5284;50.446;7.904;2023-07-24T03:51:52;7.38;;;2.28;;
10473;SDS011;5284;50.446;7.904;2023-07-24T03:56:54;25.67;;;3.45;;
10473;SDS011;5284;50.446;7.904;2023-07-24T04:01:59;13.98;;;1.80;;
10473;SDS011;5284;50.446;7.904;2023-07-24T04:07:02;24.95;;;1.95;;
10473;SDS011;5284;50.446;7.904;2023-07-24T04:12:05;29.45;;;3.22;;
10473;SDS011;5284;50.446;7.904;2023-07-24T04:17:09;25.15;;;2.20;;
10473;SDS011;5284;50.446;7.904;2023-07-24T04:22:12;15.43;;;1.92;;
10473;SDS011;5284;50.446;7.904;2023-07-24T04:27:15;3.25;;;1.77;;
10473;SDS011;5284;50.446;7.904;2023-07-24T04:32:20;14.80;;;2.20;;
10473;SDS011;5284;50.446;7.904;2023-07-24T04:37:23;3.08;;;1.42;;
10473;SDS011;5284;50.446;7.904;2023-07-24T04:42:26;14.20;;;2.47;;
10473;SDS011;5284;50.446;7.904;2023-07-24T04:47:30;14.20;;;3.08;;
10473;SDS011;5284;50.446;7.904;2023-07-24T04:52:33;15.77;;;2.75;;
10473;SDS011;5284;50.446;7.904;2023-07-24T04:57:36;9.27;;;1.95;;
10473;SDS011;5284;50.446;7.904;2023-07-24T05:02:40;3.17;;;2.13;;
10473;SDS011;5284;50.446;7.904;2023-07-24T05:07:43;7.80;;;2.30;;
10473;SDS011;5284;50.446;7.904;2023-07-24T05:12:46;5.95;;;2.17;;
10473;SDS011;5284;50.446;7.904;2023-07-24T05:17:50;4.15;;;1.70;;
10473;SDS011;5284;50.446;7.904;2023-07-24T05:22:53;19.17;;;2.80;;
10473;SDS011;5284;50.446;7.904;2023-07-24T05:27:56;5.13;;;2.55;;
10473;SDS011;5284;50.446;7.904;2023-07-24T05:33:00;5.10;;;2.17;;
10473;SDS011;5284;50.446;7.904;2023-07-24T05:38:04;3.78;;;1.85;;
10473;SDS011;5284;50.446;7.904;2023-07-24T05:43:07;15.07;;;4.30;;
10473;SDS011;5284;50.446;7.904;2023-07-24T05:48:11;4.55;;;2.47;;
10473;SDS011;5284;50.446;7.904;2023-07-24T05:53:14;3.65;;;2.05;;
10473;SDS011;5284;50.446;7.904;2023-07-24T05:58:17;4.97;;;2.38;;
10473;SDS011;5284;50.446;7.904;2023-07-24T06:03:21;8.25;;;1.95;;
10473;SDS011;5284;50.446;7.904;2023-07-24T06:08:25;12.50;;;2.90;;
10473;SDS011;5284;50.446;7.904;2023-07-24T06:13:29;7.53;;;2.35;;
10473;SDS011;5284;50.446;7.904;2023-07-24T06:18:33;9.48;;;3.10;;
10473;SDS011;5284;50.446;7.904;2023-07-24T06:23:36;6.20;;;2.30;;
10473;SDS011;5284;50.446;7.904;2023-07-24T06:28:39;12.40;;;2.03;;
10473;SDS011;5284;50.446;7.904;2023-07-24T06:33:43;8.52;;;2.65;;
10473;SDS011;5284;50.446;7.904;2023-07-24T06:38:46;10.02;;;2.75;;
10473;SDS011;5284;50.446;7.904;2023-07-24T06:43:49;6.40;;;2.25;;
10473;SDS011;5284;50.446;7.904;2023-07-24T06:48:53;7.47;;;3.22;;
10473;SDS011;5284;50.446;7.904;2023-07-24T06:53:56;5.88;;;3.22;;
10473;SDS011;5284;50.446;7.904;2023-07-24T06:58:59;12.20;;;2.95;;
10473;SDS011;5284;50.446;7.904;2023-07-24T07:04:04;8.95;;;2.97;;
10473;SDS011;5284;50.446;7.904;2023-07-24T07:09:06;6.82;;;2.70;;
10473;SDS011;5284;50.446;7.904;2023-07-24T07:14:09;6.63;;;3.00;;
10473;SDS011;5284;50.446;7.904;2023-07-24T07:19:14;7.75;;;3.65;;
10473;SDS011;5284;50.446;7.904;2023-07-24T07:24:17;5.97;;;2.97;;
10473;SDS011;5284;50.446;7.904;2023-07-24T07:29:19;8.85;;;2.80;;
10473;SDS011;5284;50.446;7.904;2023-07-24T07:34:24;6.47;;;3.03;;
10473;SDS011;5284;50.446;7.904;2023-07-24T07:39:27;6.82;;;3.15;;
10473;SDS011;5284;50.446;7.904;2023-07-24T07:44:29;4.60;;;2.33;;
10473;SDS011;5284;50.446;7.904;2023-07-24T07:49:34;15.27;;;3.38;;
10473;SDS011;5284;50.446;7.904;2023-07-24T07:54:37;9.30;;;3.42;;
10473;SDS011;5284;50.446;7.904;2023-07-24T07:59:40;7.57;;;2.80;;
10473;SDS011;5284;50.446;7.904;2023-07-24T08:04:45;7.10;;;3.13;;
10473;SDS011;5284;50.446;7.904;2023-07-24T08:09:47;6.28;;;2.78;;
10473;SDS011;5284;50.446;7.904;2023-07-24T08:14:51;8.85;;;3.15;;
10473;SDS011;5284;50.446;7.904;2023-07-24T08:19:55;9.18;;;3.17;;
10473;SDS011;5284;50.446;7.904;2023-07-24T08:24:58;6.38;;;2.85;;
10473;SDS011;5284;50.446;7.904;2023-07-24T08:30:01;10.68;;;3.30;;
10473;SDS011;5284;50.446;7.904;2023-07-24T08:35:06;8.20;;;2.38;;
10473;SDS011;5284;50.446;7.904;2023-07-24T08:40:10;5.70;;;2.47;;
10473;SDS011;5284;50.446;7.904;2023-07-24T08:45:13;7.75;;;3.33;;
10473;SDS011;5284;50.446;7.904;2023-07-24T08:50:20;7.65;;;3.75;;
10473;SDS011;5284;50.446;7.904;2023-07-24T08:55:23;7.30;;;3.22;;
10473;SDS011;5284;50.446;7.904;2023-07-24T09:00:28;12.57;;;3.10;;
10473;SDS011;5284;50.446;7.904;2023-07-24T09:05:32;7.60;;;2.97;;
10473;SDS011;5284;50.446;7.904;2023-07-24T09:10:35;8.13;;;2.90;;
10473;SDS011;5284;50.446;7.904;2023-07-24T09:15:41;4.40;;;2.42;;
10473;SDS011;5284;50.446;7.904;2023-07-24T09:20:46;6.90;;;3.03;;
10473;SDS011;5284;50.446;7.904;2023-07-24T09:25:49;5.15;;;2.88;;
10473;SDS011;5284;50.446;7.904;2023-07-24T09:30:52;9.43;;;2.90;;
10473;SDS011;5284;50.446;7.904;2023-07-24T09:35:58;5.60;;;3.00;;
10473;SDS011;5284;50.446;7.904;2023-07-24T09:41:02;5.38;;;2.53;;
10473;SDS011;5284;50.446;7.904;2023-07-24T09:46:07;4.72;;;2.25;;
10473;SDS011;5284;50.446;7.904;2023-07-24T09:51:13;7.97;;;2.50;;
10473;SDS011;5284;50.446;7.904;2023-07-24T09:56:17;6.75;;;2.60;;
10473;SDS011;5284;50.446;7.904;2023-07-24T10:01:32;11.82;;;2.80;;
10473;SDS011;5284;50.446;7.904;2023-07-24T10:06:37;6.07;;;2.67;;
10473;SDS011;5284;50.446;7.904;2023-07-24T10:11:40;15.48;;;2.80;;
10473;SDS011;5284;50.446;7.904;2023-07-24T10:16:44;5.90;;;2.53;;
10473;SDS011;5284;50.446;7.904;2023-07-24T10:21:49;7.50;;;3.03;;
10473;SDS011;5284;50.446;7.904;2023-07-24T10:26:54;5.47;;;3.17;;
10473;SDS011;5284;50.446;7.904;2023-07-24T10:31:57;5.45;;;2.53;;
10473;SDS011;5284;50.446;7.904;2023-07-24T10:37:03;5.90;;;2.70;;
10473;SDS011;5284;50.446;7.904;2023-07-24T10:42:09;7.55;;;3.53;;
10473;SDS011;5284;50.446;7.904;2023-07-24T10:47:13;11.35;;;3.30;;
10473;SDS011;5284;50.446;7.904;2023-07-24T10:52:17;6.60;;;2.78;;
10473;SDS011;5284;50.446;7.904;2023-07-24T10:57:24;5.93;;;3.20;;
10473;SDS011;5284;50.446;7.904;2023-07-24T11:02:28;6.93;;;3.13;;
10473;SDS011;5284;50.446;7.904;2023-07-24T11:07:35;5.70;;;2.88;;
10473;SDS011;5284;50.446;7.904;2023-07-24T11:12:38;7.78;;;3.22;;
10473;SDS011;5284;50.446;7.904;2023-07-24T11:17:42;8.10;;;3.35;;
10473;SDS011;5284;50.446;7.904;2023-07-24T11:22:46;12.48;;;3.78;;
10473;SDS011;5284;50.446;7.904;2023-07-24T11:27:49;9.15;;;3.88;;
10473;SDS011;5284;50.446;7.904;2023-07-24T11:32:52;10.38;;;3.92;;
10473;SDS011;5284;50.446;7.904;2023-07-24T11:37:57;12.32;;;4.22;;
10473;SDS011;5284;50.446;7.904;2023-07-24T11:43:00;6.95;;;3.75;;
10473;SDS011;5284;50.446;7.904;2023-07-24T11:48:08;9.68;;;3.28;;
10473;SDS011;5284;50.446;7.904;2023-07-24T11:53:20;6.93;;;3.53;;
10473;SDS011;5284;50.446;7.904;2023-07-24T11:58:25;9.27;;;4.03;;
10473;SDS011;5284;50.446;7.904;2023-07-24T12:03:29;4.35;;;3.03;;
10473;SDS011;5284;50.446;7.904;2023-07-24T12:08:34;11.50;;;3.60;;
10473;SDS011;5284;50.446;7.904;2023-07-24T12:13:40;11.13;;;3.60;;
10473;SDS011;5284;50.446;7.904;2023-07-24T12:18:43;9.35;;;3.45;;
10473;SDS011;5284;50.446;7.904;2023-07-24T12:23:47;15.85;;;3.55;;
10473;SDS011;5284;50.446;7.904;2023-07-24T12:28:50;10.00;;;3.78;;
10473;SDS011;5284;50.446;7.904;2023-07-24T12:33:53;8.75;;;2.75;;
10473;SDS011;5284;50.446;7.904;2023-07-24T12:38:57;7.75;;;3.45;;
10473;SDS011;5284;50.446;7.904;2023-07-24T12:44:00;8.45;;;3.75;;
10473;SDS011;5284;50.446;7.904;2023-07-24T12:49:02;7.25;;;3.38;;
10473;SDS011;5284;50.446;7.904;2023-07-24T12:54:07;10.15;;;3.42;;
10473;SDS011;5284;50.446;7.904;2023-07-24T12:59:25;10.18;;;3.20;;
10473;SDS011;5284;50.446;7.904;2023-07-24T13:04:28;13.10;;;3.10;;
10473;SDS011;5284;50.446;7.904;2023-07-24T13:09:32;6.22;;;3.20;;
10473;SDS011;5284;50.446;7.904;2023-07-24T13:14:35;10.48;;;3.67;;
10473;SDS011;5284;50.446;7.904;2023-07-24T13:19:42;11.57;;;3.95;;
10473;SDS011;5284;50.446;7.904;2023-07-24T13:24:46;6.53;;;3.20;;
10473;SDS011;5284;50.446;7.904;2023-07-24T13:29:49;8.73;;;3.20;;
10473;SDS011;5284;50.446;7.904;2023-07-24T13:34:52;6.72;;;2.65;;
10473;SDS011;5284;50.446;7.904;2023-07-24T13:39:56;12.82;;;2.95;;
10473;SDS011;5284;50.446;7.904;2023-07-24T13:44:59;5.75;;;2.80;;
10473;SDS011;5284;50.446;7.904;2023-07-24T13:50:02;14.18;;;4.07;;
10473;SDS011;5284;50.446;7.904;2023-07-24T13:55:07;6.30;;;2.90;;
10473;SDS011;5284;50.446;7.904;2023-07-24T14:00:10;5.32;;;2.67;;
10473;SDS011;5284;50.446;7.904;2023-07-24T14:10:20;3.47;;;1.60;;
10473;SDS011;5284;50.446;7.904;2023-07-24T14:15:23;4.00;;;1.30;;
10473;SDS011;5284;50.446;7.904;2023-07-24T14:20:26;7.10;;;1.70;;
10473;SDS011;5284;50.446;7.904;2023-07-24T14:25:31;5.95;;;1.17;;
10473;SDS011;5284;50.446;7.904;2023-07-24T14:30:33;2.67;;;0.80;;
10473;SDS011;5284;50.446;7.904;2023-07-24T14:35:36;2.40;;;1.05;;
10473;SDS011;5284;50.446;7.904;2023-07-24T14:40:41;3.90;;;1.40;;
10473;SDS011;5284;50.446;7.904;2023-07-24T14:45:44;1.33;;;0.80;;
10473;SDS011;5284;50.446;7.904;2023-07-24T14:50:47;1.70;;;0.77;;
10473;SDS011;5284;50.446;7.904;2023-07-24T14:55:51;1.30;;;0.68;;
10473;SDS011;5284;50.446;7.904;2023-07-24T15:00:54;2.17;;;0.70;;
10473;SDS011;5284;50.446;7.904;2023-07-24T15:05:57;1.08;;;0.65;;
10473;SDS011;5284;50.446;7.904;2023-07-24T15:11:06;1.00;;;0.90;;
10473;SDS011;5284;50.446;7.904;2023-07-24T15:16:09;1.67;;;0.98;;
10473;SDS011;5284;50.446;7.904;2023-07-24T15:21:12;1.52;;;0.90;;
10473;SDS011;5284;50.446;7.904;2023-07-24T15:26:16;3.95;;;0.95;;
10473;SDS011;5284;50.446;7.904;2023-07-24T15:31:19;1.20;;;0.80;;
10473;SDS011;5284;50.446;7.904;2023-07-24T15:36:22;2.28;;;1.20;;
10473;SDS011;5284;50.446;7.904;2023-07-24T15:41:27;2.97;;;1.05;;
10473;SDS011;5284;50.446;7.904;2023-07-24T15:46:31;3.42;;;1.10;;
10473;SDS011;5284;50.446;7.904;2023-07-24T15:51:34;2.45;;;1.23;;
10473;SDS011;5284;50.446;7.904;2023-07-24T15:56:42;2.85;;;1.05;;
10473;SDS011;5284;50.446;7.904;2023-07-24T16:01:45;4.50;;;1.50;;
10473;SDS011;5284;50.446;7.904;2023-07-24T16:06:48;2.95;;;1.00;;
10473;SDS011;5284;50.446;7.904;2023-07-24T16:11:52;2.53;;;1.23;;
10473;SDS011;5284;50.446;7.904;2023-07-24T16:16:55;5.70;;;1.02;;
10473;SDS011;5284;50.446;7.904;2023-07-24T16:21:58;2.55;;;1.08;;
10473;SDS011;5284;50.446;7.904;2023-07-24T16:27:02;1.08;;;0.75;;
10473;SDS011;5284;50.446;7.904;2023-07-24T16:32:06;2.95;;;1.05;;
10473;SDS011;5284;50.446;7.904;2023-07-24T16:37:10;4.03;;;1.40;;
10473;SDS011;5284;50.446;7.904;2023-07-24T16:42:14;2.58;;;1.27;;
10473;SDS011;5284;50.446;7.904;2023-07-24T16:47:17;2.63;;;1.17;;
10473;SDS011;5284;50.446;7.904;2023-07-24T16:52:20;2.65;;;1.38;;
10473;SDS011;5284;50.446;7.904;2023-07-24T16:57:24;1.92;;;1.30;;
10473;SDS011;5284;50.446;7.904;2023-07-24T17:02:28;2.70;;;1.08;;
10473;SDS011;5284;50.446;7.904;2023-07-24T17:07:33;3.13;;;1.50;;
10473;SDS011;5284;50.446;7.904;2023-07-24T17:12:37;3.10;;;1.38;;
10473;SDS011;5284;50.446;7.904;2023-07-24T17:17:40;5.05;;;1.20;;
10473;SDS011;5284;50.446;7.904;2023-07-24T17:22:43;1.90;;;0.82;;
10473;SDS011;5284;50.446;7.904;2023-07-24T17:27:47;3.88;;;1.00;;
10473;SDS011;5284;50.446;7.904;2023-07-24T17:32:50;1.98;;;0.75;;
10473;SDS011;5284;50.446;7.904;2023-07-24T17:37:53;3.63;;;1.25;;
10473;SDS011;5284;50.446;7.904;2023-07-24T17:42:57;1.15;;;0.88;;
10473;SDS011;5284;50.446;7.904;2023-07-24T17:48:00;3.03;;;1.17;;
10473;SDS011;5284;50.446;7.904;2023-07-24T17:53:05;4.10;;;0.80;;
10473;SDS011;5284;50.446;7.904;2023-07-24T17:58:09;3.78;;;0.75;;
10473;SDS011;5284;50.446;7.904;2023-07-24T18:03:12;1.25;;;0.80;;
10473;SDS011;5284;50.446;7.904;2023-07-24T18:08:16;1.25;;;0.77;;
10473;SDS011;5284;50.446;7.904;2023-07-24T18:13:20;2.08;;;0.93;;
10473;SDS011;5284;50.446;7.904;2023-07-24T18:18:24;1.70;;;0.80;;
10473;SDS011;5284;50.446;7.904;2023-07-24T18:23:27;1.67;;;0.93;;
10473;SDS011;5284;50.446;7.904;2023-07-24T18:28:31;4.70;;;1.00;;
10473;SDS011;5284;50.446;7.904;2023-07-24T18:33:34;3.40;;;1.00;;
10473;SDS011;5284;50.446;7.904;2023-07-24T18:38:37;2.15;;;1.00;;
10473;SDS011;5284;50.446;7.904;2023-07-24T18:43:42;1.58;;;1.00;;
10473;SDS011;5284;50.446;7.904;2023-07-24T18:48:45;2.63;;;1.17;;
10473;SDS011;5284;50.446;7.904;2023-07-24T18:53:50;2.30;;;1.10;;
10473;SDS011;5284;50.446;7.904;2023-07-24T18:58:55;4.28;;;0.93;;
10473;SDS011;5284;50.446;7.904;2023-07-24T19:03:58;1.23;;;0.70;;
10473;SDS011;5284;50.446;7.904;2023-07-24T19:09:00;2.28;;;1.02;;
10473;SDS011;5284;50.446;7.904;2023-07-24T19:14:05;3.45;;;1.00;;
10473;SDS011;5284;50.446;7.904;2023-07-24T19:19:08;2.38;;;1.35;;
10473;SDS011;5284;50.446;7.904;2023-07-24T19:24:11;1.77;;;1.35;;
10473;SDS011;5284;50.446;7.904;2023-07-24T19:29:15;6.32;;;1.02;;
10473;SDS011;5284;50.446;7.904;2023-07-24T19:34:18;1.77;;;1.10;;
10473;SDS011;5284;50.446;7.904;2023-07-24T19:39:21;1.05;;;0.68;;
10473;SDS011;5284;50.446;7.904;2023-07-24T19:44:25;1.48;;;0.85;;
10473;SDS011;5284;50.446;7.904;2023-07-24T19:49:28;3.83;;;0.90;;
10473;SDS011;5284;50.446;7.904;2023-07-24T19:54:31;1.92;;;0.90;;
10473;SDS011;5284;50.446;7.904;2023-07-24T19:59:35;1.67;;;0.90;;
10473;SDS011;5284;50.446;7.904;2023-07-24T20:04:38;1.88;;;1.15;;
10473;SDS011;5284;50.446;7.904;2023-07-24T20:09:41;2.05;;;1.20;;
10473;SDS011;5284;50.446;7.904;2023-07-24T20:14:45;2.40;;;1.40;;
10473;SDS011;5284;50.446;7.904;2023-07-24T20:19:49;3.15;;;1.88;;
10473;SDS011;5284;50.446;7.904;2023-07-24T20:24:52;4.30;;;1.88;;
10473;SDS011;5284;50.446;7.904;2023-07-24T20:29:56;4.75;;;2.03;;
10473;SDS011;5284;50.446;7.904;2023-07-24T20:35:01;6.13;;;2.20;;
10473;SDS011;5284;50.446;7.904;2023-07-24T20:40:05;3.55;;;1.92;;
10473;SDS011;5284;50.446;7.904;2023-07-24T20:45:10;6.80;;;1.90;;
10473;SDS011;5284;50.446;7.904;2023-07-24T20:50:13;3.70;;;1.80;;
10473;SDS011;5284;50.446;7.904;2023-07-24T20:55:16;3.35;;;2.10;;
10473;SDS011;5284;50.446;7.904;2023-07-24T21:00:20;5.45;;;2.45;;
10473;SDS011;5284;50.446;7.904;2023-07-24T21:05:23;4.60;;;2.42;;
10473;SDS011;5284;50.446;7.904;2023-07-24T21:10:26;8.45;;;2.13;;
10473;SDS011;5284;50.446;7.904;2023-07-24T21:15:30;7.97;;;2.00;;
10473;SDS011;5284;50.446;7.904;2023-07-24T21:20:33;7.25;;;2.20;;
10473;SDS011;5284;50.446;7.904;2023-07-24T21:25:36;9.38;;;2.88;;
10473;SDS011;5284;50.446;7.904;2023-07-24T21:30:40;7.43;;;2.30;;
10473;SDS011;5284;50.446;7.904;2023-07-24T21:35:43;7.50;;;2.45;;
10473;SDS011;5284;50.446;7.904;2023-07-24T21:40:46;3.72;;;2.38;;
10473;SDS011;5284;50.446;7.904;2023-07-24T21:45:51;7.40;;;2.30;;
10473;SDS011;5284;50.446;7.904;2023-07-24T21:50:55;11.40;;;3.28;;
10473;SDS011;5284;50.446;7.904;2023-07-24T21:55:57;7.22;;;2.22;;
10473;SDS011;5284;50.446;7.904;2023-07-24T22:01:02;3.97;;;2.40;;
10473;SDS011;5284;50.446;7.904;2023-07-24T22:06:05;5.30;;;2.60;;
10473;SDS011;5284;50.446;7.904;2023-07-24T22:11:08;5.13;;;2.15;;
10473;SDS011;5284;50.446;7.904;2023-07-24T22:16:13;5.30;;;2.20;;
10473;SDS011;5284;50.446;7.904;2023-07-24T22:21:17;5.03;;;1.80;;
10473;SDS011;5284;50.446;7.904;2023-07-24T22:26:19;4.90;;;2.25;;
10473;SDS011;5284;50.446;7.904;2023-07-24T22:31:24;4.78;;;2.25;;
10473;SDS011;5284;50.446;7.904;2023-07-24T22:36:28;5.43;;;2.00;;
10473;SDS011;5284;50.446;7.904;2023-07-24T22:41:31;5.68;;;2.55;;
10473;SDS011;5284;50.446;7.904;2023-07-24T22:46:35;4.22;;;2.50;;
10473;SDS011;5284;50.446;7.904;2023-07-24T22:51:38;9.00;;;2.90;;
10473;SDS011;5284;50.446;7.904;2023-07-24T22:56:42;3.05;;;2.13;;
10473;SDS011;5284;50.446;7.904;2023-07-24T23:01:46;3.20;;;1.90;;
10473;SDS011;5284;50.446;7.904;2023-07-24T23:06:50;3.67;;;2.13;;
10473;SDS011;5284;50.446;7.904;2023-07-24T23:11:54;4.63;;;2.25;;
10473;SDS011;5284;50.446;7.904;2023-07-24T23:16:58;7.15;;;2.55;;
10473;SDS011;5284;50.446;7.904;2023-07-24T23:22:01;4.55;;;2.28;;
10473;SDS011;5284;50.446;7.904;2023-07-24T23:27:04;4.30;;;2.17;;
10473;SDS011;5284;50.446;7.904;2023-07-24T23:32:09;5.25;;;2.67;;
10473;SDS011;5284;50.446;7.904;2023-07-24T23:37:11;5.18;;;2.70;;
10473;SDS011;5284;50.446;7.904;2023-07-24T23:42:14;7.70;;;2.70;;
10473;SDS011;5284;50.446;7.904;2023-07-24T23:47:18;7.53;;;2.45;;
10473;SDS011;5284;50.446;7.904;2023-07-24T23:52:21;6.00;;;2.78;;
10473;SDS011;5284;50.446;7.904;2023-07-24T23:57:24;3.17;;;1.95;;
